Time;durP1;ratioP1;P1;durP2;ratioP2;P2;SDS_P1;SDS_P2;PMS_P1;PMS_P2;Temp;Humidity;BMP_temperature;BMP_pressure;BME280_temperature;BME280_humidity;BME280_pressure;Samples;Min_cycle;Max_cycle;Signal;HPM_P1;HPM_P2
2022/11/16 00:01:30;;;;;;;70.97;31.42;;;;;;;5.95;100.00;98577.03;8445599;28;20052;-76
2022/11/16 00:05:30;;;;;;;65.50;32.20;;;;;;;5.97;100.00;98569.50;8437914;28;20059;-76
2022/11/16 00:09:32;;;;;;;78.03;37.85;;;;;;;5.92;100.00;98573.03;8439758;28;20052;-76
2022/11/16 00:13:34;;;;;;;78.95;40.55;;;;;;;5.90;100.00;98579.78;8438879;28;20499;-75
2022/11/16 00:17:35;;;;;;;94.50;46.80;;;;;;;5.84;100.00;98580.91;8440535;28;20060;-75
2022/11/16 00:21:36;;;;;;;94.53;47.30;;;;;;;5.81;100.00;98581.50;8429833;28;20051;-76
2022/11/16 00:25:37;;;;;;;101.75;47.95;;;;;;;5.80;100.00;98585.25;8438068;28;20058;-75
2022/11/16 00:29:38;;;;;;;104.10;50.35;;;;;;;5.73;100.00;98579.44;8434307;28;20080;-76
2022/11/16 00:33:39;;;;;;;112.85;53.30;;;;;;;5.72;100.00;98567.94;8436853;28;20121;-76
2022/11/16 00:37:40;;;;;;;119.65;57.85;;;;;;;5.69;100.00;98562.38;8429856;28;20150;-75
2022/11/16 00:41:42;;;;;;;123.28;57.22;;;;;;;5.64;100.00;98559.75;8446538;28;20537;-76
2022/11/16 00:45:43;;;;;;;118.47;57.25;;;;;;;5.63;100.00;98558.97;8439938;28;20506;-76
2022/11/16 00:49:44;;;;;;;137.77;63.83;;;;;;;5.58;100.00;98566.28;8434163;28;20052;-76
2022/11/16 00:53:45;;;;;;;143.38;65.47;;;;;;;5.50;100.00;98560.47;8439188;28;20042;-75
2022/11/16 00:57:46;;;;;;;143.20;65.40;;;;;;;5.42;100.00;98561.13;8436201;28;20532;-76
2022/11/16 01:01:47;;;;;;;149.40;67.72;;;;;;;5.45;100.00;98563.22;8430626;28;20052;-76
2022/11/16 01:05:48;;;;;;;146.52;66.22;;;;;;;5.42;100.00;98558.44;8438765;28;20429;-76
2022/11/16 01:09:49;;;;;;;168.60;71.47;;;;;;;5.44;100.00;98561.66;8433538;28;20351;-75
2022/11/16 01:13:50;;;;;;;156.55;68.05;;;;;;;5.38;100.00;98552.06;8385615;28;20058;-76
2022/11/16 01:17:53;;;;;;;159.55;70.35;;;;;;;5.38;100.00;98546.72;8437873;28;20449;-76
2022/11/16 01:21:54;;;;;;;180.85;69.68;;;;;;;5.35;100.00;98533.91;8432817;28;20051;-75
2022/11/16 01:26:00;;;;;;;162.65;68.90;;;;;;;5.29;100.00;98531.56;8427011;28;20128;-76
2022/11/16 01:30:03;;;;;;;156.55;69.03;;;;;;;5.19;100.00;98524.47;8398294;28;20127;-75
2022/11/16 01:34:04;;;;;;;165.90;69.18;;;;;;;5.18;100.00;98525.56;8413528;28;20046;-76
2022/11/16 01:38:05;;;;;;;163.82;68.70;;;;;;;5.21;100.00;98519.63;8434712;28;20052;-76
2022/11/16 01:42:06;;;;;;;147.15;65.75;;;;;;;5.17;100.00;98518.63;8433307;28;20086;-75
2022/11/16 01:46:07;;;;;;;142.82;65.05;;;;;;;5.22;100.00;98505.16;8404116;28;20055;-75
2022/11/16 01:50:11;;;;;;;131.25;62.88;;;;;;;5.24;100.00;98508.34;8429478;28;20543;-75
2022/11/16 01:54:12;;;;;;;140.45;65.55;;;;;;;5.20;100.00;98507.31;8448740;28;20036;-76
2022/11/16 01:58:19;;;;;;;142.20;65.90;;;;;;;5.20;100.00;98507.31;8383407;28;20101;-75
2022/11/16 02:02:20;;;;;;;143.55;61.50;;;;;;;5.18;100.00;98506.84;8424880;28;20048;-75
2022/11/16 02:06:26;;;;;;;130.05;57.15;;;;;;;5.11;100.00;98509.06;8400297;28;20058;-75
2022/11/16 02:11:00;;;;;;;118.00;48.83;;;;;;;4.95;100.00;98502.31;8449158;28;20052;-76
2022/11/16 02:15:22;;;;;;;94.03;44.08;;;;;;;4.89;100.00;98498.09;8440560;28;20051;-75
2022/11/16 02:20:11;;;;;;;102.88;42.33;;;;;;;4.66;100.00;98484.44;8442991;28;20413;-75
2022/11/16 02:24:31;;;;;;;87.72;39.45;;;;;;;4.62;100.00;98480.75;8279937;28;20054;-75
2022/11/16 02:29:09;;;;;;;93.22;41.05;;;;;;;4.60;100.00;98482.91;8231523;28;20528;-76
2022/11/16 02:33:12;;;;;;;78.28;37.28;;;;;;;4.54;100.00;98473.38;8276588;28;20480;-75
2022/11/16 02:37:19;;;;;;;78.72;36.78;;;;;;;4.50;100.00;98477.66;8269740;28;20428;-75
2022/11/16 02:41:21;;;;;;;83.38;35.92;;;;;;;4.46;100.00;98487.34;8264240;28;20061;-75
2022/11/16 02:45:25;;;;;;;85.43;36.47;;;;;;;4.46;100.00;98487.34;8255358;28;20484;-76
2022/11/16 02:49:27;;;;;;;77.00;35.65;;;;;;;4.38;100.00;98474.59;8269162;28;20042;-75
2022/11/16 02:53:32;;;;;;;81.22;38.03;;;;;;;4.37;100.00;98473.00;8246439;28;20137;-76
2022/11/16 02:58:07;;;;;;;95.47;36.92;;;;;;;4.39;100.00;98470.84;8302205;28;20048;-76
2022/11/16 03:02:26;;;;;;;85.80;36.55;;;;;;;4.41;100.00;98482.06;8264846;28;20046;-76
2022/11/16 03:06:30;;;;;;;80.80;35.65;;;;;;;4.45;100.00;98485.75;8265437;28;20488;-76
2022/11/16 03:14:56;;;;;;;85.13;37.10;;;;;;;4.39;100.00;98486.88;8264318;28;20081;-76
2022/11/16 03:18:58;;;;;;;105.97;38.75;;;;;;;4.43;100.00;98490.59;8265535;28;20754;-76
2022/11/16 03:23:07;;;;;;;94.93;39.33;;;;;;;4.45;100.00;98485.75;8254268;28;20054;-76
2022/11/16 03:27:18;;;;;;;98.30;40.75;;;;;;;4.50;100.00;98476.88;8269911;28;20057;-76
2022/11/16 03:31:27;;;;;;;107.30;41.88;;;;;;;4.55;100.00;98480.28;8271554;28;20096;-75
2022/11/16 03:35:54;;;;;;;102.32;42.63;;;;;;;4.58;100.00;98490.44;8292388;28;20502;-75
2022/11/16 03:39:55;;;;;;;125.88;43.10;;;;;;;4.59;100.00;98486.69;8305478;28;20037;-75
2022/11/16 03:43:57;;;;;;;109.63;38.60;;;;;;;4.58;100.00;98474.38;8300582;28;20614;-75
2022/11/16 03:47:57;;;;;;;121.10;43.85;;;;;;;4.59;100.00;98462.59;8312416;28;20149;-75
2022/11/16 03:51:58;;;;;;;113.07;41.95;;;;;;;4.62;100.00;98467.38;8308497;28;20731;-76
2022/11/16 03:55:59;;;;;;;104.82;40.50;;;;;;;4.64;100.00;98459.88;8298659;28;20041;-76
2022/11/16 04:00:01;;;;;;;110.18;42.80;;;;;;;4.65;100.00;98458.78;8299515;28;20049;-76
2022/11/16 04:04:01;;;;;;;124.15;42.03;;;;;;;4.66;100.00;98460.38;8304032;28;20038;-75
2022/11/16 04:25:29;;;;;;;120.55;41.88;;;;;;;4.67;100.00;98451.28;8424582;28;20402;-76
2022/11/16 04:29:30;;;;;;;107.97;40.42;;;;;;;4.66;100.00;98441.66;8421113;28;20048;-75
2022/11/16 04:37:52;;;;;;;113.68;40.05;;;;;;;4.65;100.00;98432.03;8425937;28;20048;-75
2022/11/16 04:50:32;;;;;;;103.68;35.95;;;;;;;4.68;100.00;98420.78;8419201;28;20573;-75
2022/11/16 04:54:33;;;;;;;94.20;36.38;;;;;;;4.72;100.00;98414.84;8440338;28;20054;-76
2022/11/16 04:58:34;;;;;;;97.82;37.60;;;;;;;4.73;100.00;98421.78;8385023;28;20489;-75
2022/11/16 05:02:35;;;;;;;99.50;36.60;;;;;;;4.72;100.00;98422.88;8411265;28;20069;-75
2022/11/16 05:06:36;;;;;;;97.47;34.88;;;;;;;4.78;100.00;98424.41;8429094;28;20133;-75
2022/11/16 05:10:37;;;;;;;92.85;34.20;;;;;;;4.79;100.00;98420.63;8426584;28;20059;-75
2022/11/16 05:14:38;;;;;;;93.82;32.67;;;;;;;4.79;100.00;98415.28;8444072;28;20382;-75
2022/11/16 05:18:39;;;;;;;101.88;35.22;;;;;;;4.84;100.00;98412.53;8436565;28;20044;-75
2022/11/16 05:22:40;;;;;;;113.68;33.50;;;;;;;4.89;100.00;98399.09;8433462;28;20039;-75
2022/11/16 05:26:41;;;;;;;95.90;32.33;;;;;;;4.89;100.00;98388.41;8435619;28;20044;-75
2022/11/16 05:30:44;;;;;;;102.55;34.25;;;;;;;4.88;100.00;98397.50;8431935;28;20040;-75
2022/11/16 05:34:45;;;;;;;103.45;34.00;;;;;;;4.88;100.00;98392.16;8402545;28;20484;-75
2022/11/16 05:38:46;;;;;;;92.82;31.63;;;;;;;4.89;100.00;98385.72;8384752;28;20040;-76
2022/11/16 05:42:47;;;;;;;99.30;33.55;;;;;;;4.93;100.00;98381.38;8412706;28;20069;-76
2022/11/16 05:46:48;;;;;;;92.18;32.47;;;;;;;4.93;100.00;98368.00;8412062;28;20036;-75
2022/11/16 05:50:49;;;;;;;103.85;35.00;;;;;;;4.96;100.00;98367.44;8430267;28;20055;-75
2022/11/16 05:54:50;;;;;;;107.07;34.20;;;;;;;4.97;100.00;98369.03;8398997;28;20055;-75
2022/11/16 05:58:51;;;;;;;103.68;33.63;;;;;;;4.98;100.00;98373.28;8428369;28;20453;-75
2022/11/16 06:02:52;;;;;;;97.55;32.70;;;;;;;5.02;100.00;98371.63;8426353;28;20395;-75
2022/11/16 06:06:53;;;;;;;100.10;33.63;;;;;;;5.01;100.00;98364.69;8426961;28;20040;-76
2022/11/16 06:10:54;;;;;;;97.68;32.20;;;;;;;5.00;100.00;98363.09;8432174;28;20494;-76
2022/11/16 06:14:55;;;;;;;97.35;31.83;;;;;;;5.03;100.00;98363.28;8426188;28;20067;-75
2022/11/16 06:18:56;;;;;;;99.10;32.65;;;;;;;5.07;100.00;98368.88;8425617;28;20047;-76
2022/11/16 06:22:57;;;;;;;108.45;35.90;;;;;;;5.07;100.00;98363.53;8422377;28;20413;-76
2022/11/16 06:26:58;;;;;;;99.38;35.33;;;;;;;5.12;100.00;98365.34;8423585;28;20040;-75
2022/11/16 06:30:59;;;;;;;103.07;34.33;;;;;;;5.08;100.00;98362.41;8421722;28;20098;-75
2022/11/16 06:35:00;;;;;;;112.72;35.58;;;;;;;5.07;100.00;98360.84;8421611;28;20040;-75
2022/11/16 06:39:01;;;;;;;110.55;38.33;;;;;;;5.10;100.00;98360.25;8423241;28;20083;-76
2022/11/16 06:43:02;;;;;;;113.78;36.80;;;;;;;5.09;100.00;98361.34;8424840;28;20051;-76
2022/11/16 06:47:03;;;;;;;138.07;42.15;;;;;;;5.10;100.00;98368.28;8422934;28;20487;-75
2022/11/16 06:51:04;;;;;;;98.35;33.05;;;;;;;5.11;100.00;98369.88;8394293;28;20413;-76
2022/11/16 06:55:06;;;;;;;99.25;34.88;;;;;;;5.17;100.00;98374.09;8378388;28;20155;-76
2022/11/16 06:59:07;;;;;;;111.63;34.22;;;;;;;5.20;100.00;98357.44;8431312;28;20044;-76
2022/11/16 07:03:08;;;;;;;108.15;35.30;;;;;;;5.19;100.00;98361.19;8410053;28;20046;-76
2022/11/16 07:07:09;;;;;;;109.15;35.05;;;;;;;5.18;100.00;98370.31;8390415;28;20164;-75
2022/11/16 07:11:10;;;;;;;107.05;34.70;;;;;;;5.19;100.00;98381.81;8429977;28;20126;-75
2022/11/16 07:15:11;;;;;;;103.32;33.20;;;;;;;5.21;100.00;98385.78;8375291;28;20060;-75
2022/11/16 07:19:12;;;;;;;114.25;36.42;;;;;;;5.25;100.00;98377.97;8424480;28;20056;-76
2022/11/16 07:23:13;;;;;;;116.97;36.35;;;;;;;5.26;100.00;98372.31;8421235;28;20044;-75
2022/11/16 07:27:13;;;;;;;100.28;33.88;;;;;;;5.26;100.00;98366.97;8429306;28;20040;-76
2022/11/16 07:31:15;;;;;;;112.80;34.67;;;;;;;5.29;100.00;98374.41;8426578;28;20105;-76
2022/11/16 07:35:16;;;;;;;93.10;32.33;;;;;;;5.24;100.00;98374.50;8428353;28;20048;-75
2022/11/16 07:39:17;;;;;;;109.05;35.33;;;;;;;5.20;100.00;98376.16;8428077;28;20052;-75
2022/11/16 07:43:17;;;;;;;97.15;31.38;;;;;;;5.15;100.00;98376.25;8424529;28;20086;-75
2022/11/16 07:47:19;;;;;;;104.60;33.17;;;;;;;5.18;100.00;98375.69;8427163;28;20040;-76
2022/11/16 07:51:19;;;;;;;103.80;33.22;;;;;;;5.17;100.00;98374.09;8425866;28;20044;-75
2022/11/16 07:55:23;;;;;;;86.18;30.35;;;;;;;5.15;100.00;98370.88;8427905;28;20094;-75
2022/11/16 07:59:24;;;;;;;103.20;32.45;;;;;;;5.19;100.00;98379.91;8427563;28;20059;-76
2022/11/16 08:03:26;;;;;;;144.50;35.22;;;;;;;5.22;100.00;98387.38;8427366;28;20052;-75
2022/11/16 08:07:26;;;;;;;132.70;39.60;;;;;;;5.22;100.00;98375.88;8425045;28;20075;-77
2022/11/16 08:11:28;;;;;;;103.63;32.40;;;;;;;5.17;100.00;98389.34;8428223;28;20048;-76
2022/11/16 08:15:29;;;;;;;131.60;35.50;;;;;;;5.14;100.00;98390.72;8423213;28;20667;-75
2022/11/16 08:19:30;;;;;;;136.63;33.38;;;;;;;5.14;100.00;98390.72;8405138;28;20080;-76
2022/11/16 08:23:31;;;;;;;158.57;41.58;;;;;;;5.13;100.00;98389.09;8393865;28;20056;-76
2022/11/16 08:27:33;;;;;;;132.60;36.40;;;;;;;5.14;100.00;98380.00;8414030;28;20048;-76
2022/11/16 08:31:34;;;;;;;107.22;31.52;;;;;;;5.13;100.00;98377.63;8417613;28;20745;-75
2022/11/16 08:35:35;;;;;;;94.72;28.50;;;;;;;5.07;100.00;98382.25;8406449;28;20052;-75
2022/11/16 08:39:36;;;;;;;97.78;27.88;;;;;;;5.09;100.00;98377.41;8412606;28;20371;-75
2022/11/16 08:43:39;;;;;;;88.15;28.02;;;;;;;5.06;100.00;98388.69;8411079;28;20052;-75
2022/11/16 08:47:40;;;;;;;96.82;28.65;;;;;;;5.05;100.00;98392.44;8375886;28;20053;-76
2022/11/16 08:51:41;;;;;;;75.60;26.02;;;;;;;4.99;100.00;98393.59;8412000;28;20048;-76
2022/11/16 08:55:42;;;;;;;77.45;24.90;;;;;;;4.98;100.00;98392.81;8374682;28;20524;-75
2022/11/16 08:59:43;;;;;;;102.03;28.20;;;;;;;4.96;100.00;98389.66;8408807;28;20049;-75
2022/11/16 09:03:44;;;;;;;77.80;26.10;;;;;;;5.00;100.00;98405.91;8415892;28;20433;-75
2022/11/16 09:07:46;;;;;;;94.13;26.67;;;;;;;4.97;100.00;98395.78;8407134;28;20052;-75
2022/11/16 09:11:47;;;;;;;99.05;28.25;;;;;;;4.93;100.00;98405.47;8414659;28;20063;-75
2022/11/16 09:15:55;;;;;;;99.90;30.10;;;;;;;4.93;100.00;98406.25;8419664;28;20047;-75
2022/11/16 09:19:56;;;;;;;86.80;26.67;;;;;;;4.94;100.00;98412.41;8423854;28;20454;-75
2022/11/16 09:23:57;;;;;;;92.38;27.95;;;;;;;4.94;100.00;98407.06;8413261;28;20072;-75
2022/11/16 09:27:58;;;;;;;103.38;29.10;;;;;;;4.94;100.00;98423.13;8405457;28;20044;-76
2022/11/16 09:32:01;;;;;;;92.40;28.20;;;;;;;5.01;100.00;98423.56;8415858;28;20128;-75
2022/11/16 09:36:05;;;;;;;94.93;27.50;;;;;;;5.01;100.00;98423.56;8420644;28;20102;-75
2022/11/16 09:40:07;;;;;;;108.97;30.23;;;;;;;4.95;100.00;98419.34;8415466;28;20040;-75
2022/11/16 09:44:26;;;;;;;94.63;31.05;;;;;;;4.96;100.00;98410.25;8361173;28;20048;-76
2022/11/16 09:48:28;;;;;;;120.53;33.65;;;;;;;4.97;100.00;98406.50;8385753;28;20055;-75
2022/11/16 09:52:32;;;;;;;127.63;39.15;;;;;;;4.99;100.00;98398.97;8401534;28;20379;-76
2022/11/16 09:56:37;;;;;;;127.10;38.53;;;;;;;4.98;100.00;98392.00;8425477;28;20048;-75
2022/11/16 10:00:44;;;;;;;131.30;39.42;;;;;;;4.95;100.00;98393.41;8425227;28;20059;-75
2022/11/16 10:04:51;;;;;;;105.65;34.30;;;;;;;4.95;100.00;98389.94;8426297;28;20048;-75
2022/11/16 10:08:55;;;;;;;104.70;33.67;;;;;;;5.00;100.00;98390.66;8426484;28;20052;-75
2022/11/16 10:13:19;;;;;;;97.68;33.20;;;;;;;4.98;100.00;98386.66;8413059;28;20043;-75
2022/11/16 10:17:32;;;;;;;105.15;31.80;;;;;;;5.02;100.00;98385.00;8414204;28;20048;-75
2022/11/16 10:22:32;;;;;;;94.40;32.45;;;;;;;5.05;100.00;98381.75;8388559;28;20053;-75
2022/11/16 10:26:54;;;;;;;114.37;37.33;;;;;;;5.04;100.00;98375.59;8167559;29;20051;-75
2022/11/16 10:31:13;;;;;;;104.28;37.55;;;;;;;5.02;100.00;98360.94;8161528;29;20129;-75
2022/11/16 10:35:18;;;;;;;90.70;33.42;;;;;;;5.02;100.00;98350.22;8171509;29;20466;-75
2022/11/16 10:39:19;;;;;;;102.25;35.53;;;;;;;5.01;100.00;98348.63;8169260;29;20107;-75
2022/11/16 10:43:26;;;;;;;84.25;30.60;;;;;;;5.01;100.00;98348.63;8172605;29;20055;-76
2022/11/16 10:47:45;;;;;;;83.43;32.58;;;;;;;5.04;100.00;98343.47;8133381;29;20050;-75
2022/11/16 10:51:47;;;;;;;86.97;33.47;;;;;;;5.11;100.00;98337.78;8172960;29;20542;-75
2022/11/16 10:56:16;;;;;;;87.82;34.35;;;;;;;5.11;100.00;98343.13;8172449;29;20055;-75
2022/11/16 11:00:32;;;;;;;71.80;31.40;;;;;;;5.14;100.00;98342.53;8196853;28;20045;-75
2022/11/16 11:04:33;;;;;;;77.60;31.90;;;;;;;5.15;100.00;98333.41;8432602;28;20056;-75
2022/11/16 11:08:34;;;;;;;102.65;39.03;;;;;;;5.12;100.00;98334.00;8393278;28;20056;-75
2022/11/16 11:12:38;;;;;;;90.50;35.30;;;;;;;5.09;100.00;98329.22;8436982;28;20059;-75
2022/11/16 11:16:40;;;;;;;78.82;30.35;;;;;;;5.01;100.00;98337.94;8419394;28;20055;-76
2022/11/16 11:20:43;;;;;;;88.35;33.38;;;;;;;5.03;100.00;98331.19;8435912;28;20438;-75
2022/11/16 11:24:48;;;;;;;80.22;32.13;;;;;;;5.01;100.00;98336.06;8417613;28;20044;-75
2022/11/16 11:28:49;;;;;;;79.60;30.92;;;;;;;4.94;100.00;98337.50;8417626;28;20052;-75
2022/11/16 11:32:51;;;;;;;74.65;29.30;;;;;;;4.97;100.00;98336.94;8435684;28;20417;-75
2022/11/16 11:37:02;;;;;;;75.97;29.45;;;;;;;4.95;100.00;98333.72;8435057;28;20056;-76
2022/11/16 11:41:04;;;;;;;81.38;30.08;;;;;;;4.96;100.00;98329.97;8435731;28;20048;-75
2022/11/16 11:45:08;;;;;;;82.35;29.70;;;;;;;5.01;100.00;98327.22;8435579;28;20050;-75
2022/11/16 11:49:13;;;;;;;80.30;30.00;;;;;;;5.02;100.00;98312.75;8416940;28;20044;-75
2022/11/16 11:53:17;;;;;;;71.97;28.10;;;;;;;5.02;100.00;98302.06;8410999;28;20076;-75
2022/11/16 11:57:21;;;;;;;87.32;32.72;;;;;;;5.01;100.00;98311.16;8435114;28;20049;-75
2022/11/16 12:01:47;;;;;;;80.80;31.00;;;;;;;5.00;100.00;98306.91;8434538;28;20048;-76
2022/11/16 12:06:10;;;;;;;69.28;29.30;;;;;;;4.97;100.00;98299.47;8432435;28;20044;-76
2022/11/16 12:10:49;;;;;;;63.75;26.05;;;;;;;4.96;100.00;98287.16;8399377;28;20048;-76
2022/11/16 12:15:00;;;;;;;77.53;29.60;;;;;;;4.96;100.00;98287.16;8434696;28;20468;-76
2022/11/16 12:19:16;;;;;;;60.55;25.52;;;;;;;4.99;100.00;98286.56;8435213;28;20044;-76
2022/11/16 12:23:31;;;;;;;70.18;29.30;;;;;;;4.98;100.00;98290.31;8436076;28;20406;-76
2022/11/16 12:27:41;;;;;;;68.43;26.70;;;;;;;4.97;100.00;98294.13;8435509;28;20405;-76
2022/11/16 12:32:05;;;;;;;60.20;23.92;;;;;;;5.00;100.00;98298.88;8434402;28;20486;-76
2022/11/16 12:36:35;;;;;;;59.55;22.88;;;;;;;5.04;100.00;98294.50;8433382;28;20134;-75
2022/11/16 12:40:42;;;;;;;57.10;25.48;;;;;;;5.02;100.00;98294.03;8277385;28;20093;-75
2022/11/16 12:45:13;;;;;;;41.88;18.73;;;;;;;4.96;100.00;98295.19;8264829;28;20481;-75
2022/11/16 12:49:29;;;;;;;52.30;22.00;;;;;;;4.97;100.00;98291.44;8263922;28;20054;-78
2022/11/16 12:53:54;;;;;;;54.17;21.73;;;;;;;4.94;100.00;98295.47;8262839;28;20054;-78
2022/11/16 12:57:58;;;;;;;51.92;20.13;;;;;;;4.88;100.00;98274.44;8262131;28;20780;-78
2022/11/16 13:02:29;;;;;;;49.75;22.88;;;;;;;4.85;100.00;98285.72;8263977;28;20122;-77
2022/11/16 13:06:34;;;;;;;49.55;21.83;;;;;;;4.88;100.00;98279.78;8262760;28;20053;-77
2022/11/16 13:10:37;;;;;;;47.97;20.58;;;;;;;4.88;100.00;98274.44;8260718;28;20120;-77
2022/11/16 13:14:41;;;;;;;56.53;22.48;;;;;;;4.85;100.00;98267.00;8262161;28;20046;-77
2022/11/16 13:18:43;;;;;;;52.15;22.95;;;;;;;4.82;100.00;98273.72;8329702;28;20069;-77
2022/11/16 13:22:58;;;;;;;58.67;25.05;;;;;;;4.74;100.00;98268.25;8330631;28;20068;-77
2022/11/16 13:27:11;;;;;;;53.58;23.40;;;;;;;4.79;100.00;98276.19;8330630;28;20053;-76
2022/11/16 13:31:25;;;;;;;61.20;26.58;;;;;;;4.75;100.00;98275.19;8330893;28;20425;-77
2022/11/16 13:35:25;;;;;;;63.22;26.77;;;;;;;4.74;100.00;98279.75;8296464;28;20088;-77
2022/11/16 13:39:57;;;;;;;57.60;25.80;;;;;;;4.75;100.00;98267.16;8314285;28;20055;-76
2022/11/16 13:43:59;;;;;;;62.75;27.30;;;;;;;4.75;100.00;98269.84;8329753;28;20083;-77
2022/11/16 13:48:03;;;;;;;59.17;24.63;;;;;;;4.75;100.00;98270.63;8338568;28;20118;-77
2022/11/16 13:52:06;;;;;;;51.13;25.80;;;;;;;4.71;100.00;98280.31;8439505;28;20052;-77
2022/11/16 13:56:08;;;;;;;60.13;27.48;;;;;;;4.73;100.00;98272.00;8400034;28;20130;-76
2022/11/16 14:00:10;;;;;;;63.67;27.83;;;;;;;4.77;100.00;98273.00;8407592;28;20542;-75
2022/11/16 14:04:41;;;;;;;49.80;26.42;;;;;;;4.78;100.00;98269.25;8438835;28;20041;-77
2022/11/16 14:08:42;;;;;;;59.63;27.98;;;;;;;4.74;100.00;98268.25;8411158;28;20052;-76
2022/11/16 14:12:43;;;;;;;54.00;26.20;;;;;;;4.70;100.00;98267.25;8438136;28;20483;-77
2022/11/16 14:16:50;;;;;;;58.38;27.35;;;;;;;4.71;100.00;98274.16;8436423;28;20048;-76
2022/11/16 14:20:57;;;;;;;60.00;26.10;;;;;;;4.68;100.00;98265.66;8435817;28;20047;-77
2022/11/16 14:25:36;;;;;;;53.22;26.85;;;;;;;4.73;100.00;98272.00;8428777;28;20047;-77
2022/11/16 14:29:50;;;;;;;50.30;25.25;;;;;;;4.74;100.00;98284.28;8291998;28;20247;-77
2022/11/16 14:33:53;;;;;;;60.40;29.70;;;;;;;4.73;100.00;98266.66;8302370;28;20072;-78
2022/11/16 14:37:59;;;;;;;59.95;27.48;;;;;;;4.73;100.00;98277.34;8297948;28;20104;-76
2022/11/16 14:42:14;;;;;;;53.88;25.73;;;;;;;4.70;100.00;98277.94;8299715;28;20049;-75
2022/11/16 14:46:25;;;;;;;59.80;29.98;;;;;;;4.68;100.00;98276.34;8278058;28;20598;-78
2022/11/16 14:50:26;;;;;;;55.97;28.85;;;;;;;4.73;100.00;98266.66;8297267;28;20152;-77
2022/11/16 14:54:40;;;;;;;63.83;31.67;;;;;;;4.72;100.00;98265.84;8296497;28;20109;-77
2022/11/16 14:58:58;;;;;;;62.80;29.55;;;;;;;4.73;100.00;98261.31;8294861;28;20097;-75
2022/11/16 15:03:01;;;;;;;63.33;29.40;;;;;;;4.68;100.00;98260.31;8294424;28;20046;-75
2022/11/16 15:07:05;;;;;;;70.97;31.10;;;;;;;4.66;100.00;98257.09;8423240;28;20051;-76
2022/11/16 15:11:09;;;;;;;86.35;37.90;;;;;;;4.72;100.00;98259.72;8430686;28;20508;-75
2022/11/16 15:15:10;;;;;;;99.80;40.95;;;;;;;4.70;100.00;98257.34;8411193;28;20071;-75
2022/11/16 15:19:11;;;;;;;49.10;26.38;;;;;;;4.66;100.00;98251.75;8412378;28;20044;-74
2022/11/16 15:23:14;;;;;;;36.20;19.73;;;;;;;4.66;100.00;98267.00;8430035;28;20044;-74
2022/11/16 15:27:42;;;;;;;40.35;19.83;;;;;;;4.65;100.00;98255.50;8412336;28;20379;-74
2022/11/16 15:31:44;;;;;;;37.28;17.95;;;;;;;4.63;100.00;98257.69;8230028;28;20575;-75
2022/11/16 15:35:46;;;;;;;39.80;20.63;;;;;;;4.66;100.00;98254.44;8245339;28;20042;-75
2022/11/16 15:39:48;;;;;;;40.03;20.45;;;;;;;4.65;100.00;98255.50;8263665;28;20051;-74
2022/11/16 15:43:52;;;;;;;46.00;19.60;;;;;;;4.65;100.00;98260.88;8262918;28;20420;-74
2022/11/16 15:47:56;;;;;;;33.88;17.83;;;;;;;4.67;100.00;98263.25;8245724;28;20047;-75
2022/11/16 15:51:58;;;;;;;32.78;15.82;;;;;;;4.68;100.00;98254.94;8228333;28;20496;-75
2022/11/16 15:55:59;;;;;;;28.00;14.43;;;;;;;4.63;100.00;98246.22;8228967;28;20411;-74
2022/11/16 16:00:00;;;;;;;31.88;16.42;;;;;;;4.64;100.00;98261.97;8244402;28;20046;-75
2022/11/16 16:04:04;;;;;;;32.17;15.70;;;;;;;4.62;100.00;98256.09;8265536;28;20050;-75
2022/11/16 16:08:35;;;;;;;28.65;14.02;;;;;;;4.62;100.00;98256.09;8337835;28;20048;-75
2022/11/16 16:12:50;;;;;;;48.95;21.08;;;;;;;4.57;100.00;98258.84;8416695;28;20332;-75
2022/11/16 16:16:55;;;;;;;22.98;12.77;;;;;;;4.57;100.00;98261.53;8394626;28;20165;-75
2022/11/16 16:20:56;;;;;;;24.38;12.52;;;;;;;4.52;100.00;98261.59;8438695;28;20174;-75
2022/11/16 16:25:00;;;;;;;23.08;11.65;;;;;;;4.53;100.00;98268.56;8449189;28;20094;-75
2022/11/16 16:29:02;;;;;;;23.90;13.27;;;;;;;4.49;100.00;98267.53;8394073;28;20052;-75
2022/11/16 16:33:05;;;;;;;17.63;11.02;;;;;;;4.47;100.00;98264.34;8377695;28;20048;-75
2022/11/16 16:37:10;;;;;;;21.17;12.98;;;;;;;4.42;100.00;98261.75;8431068;28;20794;-76
2022/11/16 16:41:18;;;;;;;20.50;11.90;;;;;;;4.42;100.00;98261.75;8413921;28;20048;-75
2022/11/16 16:45:26;;;;;;;19.10;11.07;;;;;;;4.40;100.00;98255.88;8446835;28;20175;-76
2022/11/16 16:49:27;;;;;;;23.52;12.43;;;;;;;4.39;100.00;98261.53;8412227;28;20067;-75
2022/11/16 16:53:28;;;;;;;24.45;11.95;;;;;;;4.38;100.00;98268.78;8429220;28;20460;-74
2022/11/16 16:57:29;;;;;;;23.90;13.90;;;;;;;4.37;100.00;98261.81;8393375;28;20044;-74
2022/11/16 17:01:31;;;;;;;18.60;11.00;;;;;;;4.39;100.00;98273.00;8432984;28;20059;-75
2022/11/16 17:05:34;;;;;;;18.23;11.65;;;;;;;4.31;100.00;98271.00;8341657;28;20113;-76
2022/11/16 17:09:36;;;;;;;22.70;12.32;;;;;;;4.30;100.00;98258.72;8365249;28;20044;-75
2022/11/16 17:13:38;;;;;;;22.27;11.95;;;;;;;4.27;100.00;98253.94;8381389;28;20048;-75
2022/11/16 17:17:41;;;;;;;22.08;11.18;;;;;;;4.24;100.00;98254.50;8378877;28;20156;-75
2022/11/16 17:21:43;;;;;;;18.30;10.38;;;;;;;4.21;100.00;98255.09;8334933;28;20045;-76
2022/11/16 17:25:45;;;;;;;22.00;11.20;;;;;;;4.25;100.00;98256.09;8372935;28;20052;-74
2022/11/16 17:29:46;;;;;;;17.15;10.98;;;;;;;4.20;100.00;98266.88;8379619;28;20511;-75
2022/11/16 17:33:50;;;;;;;17.60;10.65;;;;;;;4.21;100.00;98263.13;8369914;28;20086;-76
2022/11/16 17:37:52;;;;;;;25.27;13.45;;;;;;;4.24;100.00;98265.19;8360554;28;20052;-74
2022/11/16 17:41:53;;;;;;;30.48;14.75;;;;;;;4.24;100.00;98259.84;8382434;28;20074;-74
2022/11/16 17:46:06;;;;;;;16.05;10.35;;;;;;;4.26;100.00;98265.72;8351499;28;20041;-74
2022/11/16 17:50:08;;;;;;;19.85;11.20;;;;;;;4.21;100.00;98269.25;8399768;28;20056;-74
2022/11/16 17:54:09;;;;;;;18.02;10.93;;;;;;;4.18;100.00;98267.13;8395148;28;20501;-75
2022/11/16 17:58:10;;;;;;;19.65;10.80;;;;;;;4.14;100.00;98270.69;8396930;28;20040;-75
2022/11/16 18:02:11;;;;;;;20.50;10.77;;;;;;;4.13;100.00;98269.88;8368418;28;20078;-75
2022/11/16 18:06:15;;;;;;;40.67;17.33;;;;;;;4.16;100.00;98273.88;8369239;28;20041;-75
2022/11/16 18:10:17;;;;;;;34.00;17.77;;;;;;;4.12;100.00;98279.00;8397424;28;20109;-75
2022/11/16 18:14:18;;;;;;;26.75;13.88;;;;;;;4.11;100.00;98292.63;8380683;28;20105;-75
2022/11/16 18:18:19;;;;;;;19.38;10.52;;;;;;;4.09;100.00;98289.44;8400765;28;20049;-75
2022/11/16 18:22:21;;;;;;;17.85;10.30;;;;;;;4.09;100.00;98282.22;8405050;28;20052;-75
2022/11/16 18:26:24;;;;;;;16.25;9.57;;;;;;;4.06;100.00;98279.34;8400590;28;20062;-74
2022/11/16 18:30:24;;;;;;;17.13;10.00;;;;;;;4.08;100.00;98283.31;8352748;28;20075;-75
2022/11/16 18:34:26;;;;;;;16.88;9.45;;;;;;;4.04;100.00;98281.50;8391974;28;20044;-75
2022/11/16 18:38:26;;;;;;;19.08;8.98;;;;;;;4.03;100.00;98295.94;8428727;28;20060;-74
2022/11/16 18:42:28;;;;;;;14.23;8.98;;;;;;;4.05;100.00;98283.09;8426068;28;20051;-75
2022/11/16 18:46:30;;;;;;;19.38;12.18;;;;;;;4.01;100.00;98276.75;8388743;28;20466;-75
2022/11/16 18:50:32;;;;;;;13.25;8.15;;;;;;;4.07;100.00;98275.59;8423546;28;20510;-75
2022/11/16 18:54:33;;;;;;;18.45;8.15;;;;;;;4.03;100.00;98279.91;8375171;28;20133;-76
2022/11/16 18:58:34;;;;;;;15.88;9.82;;;;;;;3.97;100.00;98275.69;8444592;28;20379;-75
2022/11/16 19:02:35;;;;;;;14.20;7.90;;;;;;;3.94;100.00;98281.63;8433178;28;20390;-75
2022/11/16 19:06:36;;;;;;;20.13;10.40;;;;;;;3.90;100.00;98276.06;8435990;28;20105;-75
2022/11/16 19:10:38;;;;;;;13.57;10.18;;;;;;;3.91;100.00;98271.50;8418786;28;20048;-75
2022/11/16 19:14:39;;;;;;;17.38;11.15;;;;;;;3.87;100.00;98270.47;8423789;28;20071;-75
2022/11/16 19:18:40;;;;;;;11.85;7.43;;;;;;;3.85;100.00;98267.31;8399836;28;20043;-73